AUA8LG LIMC-LOWW
Flight info
| Callsign | AUA8LG |
|---|---|
| Flight time | 1h 0m |
| Altitude | 34000 |
| Route | OSKOR DCT NESTI DCT ARALD/N0417F330 DCT ABTAN ABTAN2W |
| Aircraft | A320/M-SDE3FGHIRWY/LB1 |
Departure
| Time | 2026-04-25 17:51 |
|---|---|
| Airport | Milan Malpensa International Airport (LIMC) |
Arrival
| Time | 2026-04-25 18:51 |
|---|---|
| Airport | Vienna International Airport (LOWW) |
| Time | Latitude | Longitude | Altitude | Speed | Heading |
|---|---|---|---|---|---|
| 2026-04-25 17:25 | 45.62391 | 8.71717 | 741 ft | 0 kts | 349° |
| 2026-04-25 17:39 | 45.62381 | 8.71719 | 741 ft | 3 kts | 349° |
| 2026-04-25 17:39 | 45.62361 | 8.71725 | 740 ft | 3 kts | 349° |
| 2026-04-25 17:39 | 45.62342 | 8.71730 | 741 ft | 3 kts | 0° |
| 2026-04-25 17:40 | 45.62324 | 8.71725 | 741 ft | 3 kts | 37° |
| 2026-04-25 17:40 | 45.62311 | 8.71705 | 739 ft | 2 kts | 72° |
| 2026-04-25 17:40 | 45.62309 | 8.71690 | 741 ft | 2 kts | 79° |
| 2026-04-25 17:40 | 45.62306 | 8.71668 | 741 ft | 1 kts | 79° |
| 2026-04-25 17:41 | 45.62306 | 8.71667 | 741 ft | 0 kts | 79° |
| 2026-04-25 17:43 | 45.62306 | 8.71669 | 741 ft | 2 kts | 79° |
| 2026-04-25 17:43 | 45.62320 | 8.71777 | 741 ft | 16 kts | 79° |
| 2026-04-25 17:43 | 45.62308 | 8.71924 | 741 ft | 16 kts | 146° |
| 2026-04-25 17:43 | 45.62197 | 8.71959 | 741 ft | 17 kts | 171° |
| 2026-04-25 17:44 | 45.62069 | 8.71990 | 741 ft | 20 kts | 167° |
| 2026-04-25 17:44 | 45.61928 | 8.72035 | 741 ft | 22 kts | 169° |
| 2026-04-25 17:44 | 45.61775 | 8.72076 | 742 ft | 23 kts | 170° |
| 2026-04-25 17:44 | 45.61612 | 8.72120 | 740 ft | 25 kts | 169° |
| 2026-04-25 17:45 | 45.61440 | 8.72167 | 742 ft | 26 kts | 168° |
| 2026-04-25 17:45 | 45.61321 | 8.72199 | 740 ft | 27 kts | 169° |
| 2026-04-25 17:45 | 45.61080 | 8.72267 | 742 ft | 26 kts | 169° |
| 2026-04-25 17:45 | 45.60897 | 8.72316 | 740 ft | 27 kts | 169° |
| 2026-04-25 17:46 | 45.60721 | 8.72366 | 742 ft | 22 kts | 168° |
| 2026-04-25 17:46 | 45.60637 | 8.72525 | 742 ft | 23 kts | 95° |
| 2026-04-25 17:46 | 45.60620 | 8.72756 | 742 ft | 24 kts | 96° |
| 2026-04-25 17:46 | 45.60602 | 8.73004 | 742 ft | 26 kts | 96° |
| 2026-04-25 17:47 | 45.60607 | 8.73232 | 742 ft | 20 kts | 62° |
| 2026-04-25 17:47 | 45.60727 | 8.73331 | 742 ft | 21 kts | 22° |
| 2026-04-25 17:47 | 45.60872 | 8.73403 | 740 ft | 23 kts | 12° |
| 2026-04-25 17:47 | 45.61033 | 8.73370 | 742 ft | 24 kts | 348° |
| 2026-04-25 17:48 | 45.61390 | 8.73273 | 740 ft | 28 kts | 349° |
| 2026-04-25 17:48 | 45.61529 | 8.73235 | 741 ft | 15 kts | 349° |
| 2026-04-25 17:48 | 45.61620 | 8.73252 | 742 ft | 13 kts | 55° |
| 2026-04-25 17:49 | 45.61636 | 8.73373 | 742 ft | 12 kts | 84° |
| 2026-04-25 17:49 | 45.61626 | 8.73461 | 742 ft | 7 kts | 115° |
| 2026-04-25 17:49 | 45.61593 | 8.73545 | 742 ft | 12 kts | 111° |
| 2026-04-25 17:49 | 45.61593 | 8.73659 | 742 ft | 12 kts | 78° |
| 2026-04-25 17:50 | 45.61620 | 8.73742 | 742 ft | 4 kts | 11° |
| 2026-04-25 17:50 | 45.61639 | 8.73733 | 742 ft | 2 kts | 351° |
| 2026-04-25 17:50 | 45.61715 | 8.73714 | 741 ft | 38 kts | 349° |
| 2026-04-25 17:50 | 45.62241 | 8.73568 | 740 ft | 111 kts | 349° |
| 2026-04-25 17:51 | 45.63197 | 8.73303 | 742 ft | 167 kts | 349° |
| 2026-04-25 17:51 | 45.64422 | 8.72998 | 1192 ft | 177 kts | 353° |
| 2026-04-25 17:51 | 45.65633 | 8.73136 | 1895 ft | 181 kts | 20° |
| 2026-04-25 17:51 | 45.66649 | 8.74111 | 2257 ft | 203 kts | 50° |
| 2026-04-25 17:52 | 45.67363 | 8.75882 | 2833 ft | 215 kts | 67° |
| 2026-04-25 17:52 | 45.67580 | 8.76545 | 3040 ft | 219 kts | 65° |
| 2026-04-25 17:52 | 45.69042 | 8.79527 | 3906 ft | 223 kts | 43° |
| 2026-04-25 17:52 | 45.70213 | 8.80964 | 3993 ft | 221 kts | 38° |
| 2026-04-25 17:53 | 45.71428 | 8.82322 | 4165 ft | 223 kts | 37° |
| 2026-04-25 17:53 | 45.72506 | 8.84022 | 4722 ft | 240 kts | 67° |
| 2026-04-25 17:53 | 45.72665 | 8.86390 | 5503 ft | 246 kts | 105° |
| 2026-04-25 17:53 | 45.71885 | 8.88577 | 6398 ft | 249 kts | 123° |
| 2026-04-25 17:54 | 45.70850 | 8.90579 | 7252 ft | 252 kts | 127° |
| 2026-04-25 17:54 | 45.69747 | 8.92552 | 8104 ft | 255 kts | 127° |
| 2026-04-25 17:54 | 45.68633 | 8.94542 | 8966 ft | 258 kts | 126° |
| 2026-04-25 17:54 | 45.67518 | 8.96583 | 9834 ft | 262 kts | 125° |
| 2026-04-25 17:55 | 45.66409 | 8.98667 | 10633 ft | 265 kts | 124° |
| 2026-04-25 17:55 | 45.65366 | 9.00850 | 11411 ft | 268 kts | 115° |
| 2026-04-25 17:55 | 45.64808 | 9.03463 | 11740 ft | 287 kts | 91° |
| 2026-04-25 17:55 | 45.64782 | 9.06425 | 12027 ft | 310 kts | 88° |
| 2026-04-25 17:56 | 45.64802 | 9.09617 | 12300 ft | 332 kts | 87° |
| 2026-04-25 17:56 | 45.64832 | 9.12965 | 12917 ft | 341 kts | 88° |
| 2026-04-25 17:56 | 45.64858 | 9.16381 | 13653 ft | 346 kts | 88° |
| 2026-04-25 17:56 | 45.64880 | 9.19846 | 14340 ft | 351 kts | 88° |
| 2026-04-25 17:57 | 45.64898 | 9.23354 | 15023 ft | 355 kts | 88° |
| 2026-04-25 17:57 | 45.64914 | 9.26863 | 15780 ft | 359 kts | 88° |
| 2026-04-25 17:57 | 45.64925 | 9.30452 | 16465 ft | 363 kts | 88° |
| 2026-04-25 17:57 | 45.64929 | 9.31672 | 16701 ft | 364 kts | 88° |
| 2026-04-25 17:58 | 45.64944 | 9.37753 | 17827 ft | 371 kts | 88° |
| 2026-04-25 17:58 | 45.64953 | 9.41459 | 18476 ft | 375 kts | 87° |
| 2026-04-25 17:58 | 45.64963 | 9.45218 | 19048 ft | 379 kts | 87° |
| 2026-04-25 17:58 | 45.64974 | 9.49003 | 19617 ft | 383 kts | 87° |
| 2026-04-25 17:59 | 45.64983 | 9.52830 | 20193 ft | 387 kts | 86° |
| 2026-04-25 17:59 | 45.64991 | 9.56687 | 20656 ft | 390 kts | 86° |
| 2026-04-25 17:59 | 45.64995 | 9.60585 | 21224 ft | 394 kts | 86° |
| 2026-04-25 17:59 | 45.64997 | 9.64518 | 21798 ft | 398 kts | 86° |
| 2026-04-25 18:00 | 45.64996 | 9.68489 | 22367 ft | 401 kts | 86° |
| 2026-04-25 18:00 | 45.64995 | 9.72497 | 22926 ft | 405 kts | 85° |
| 2026-04-25 18:00 | 45.64992 | 9.76541 | 23493 ft | 409 kts | 85° |
| 2026-04-25 18:00 | 45.64986 | 9.80618 | 23961 ft | 412 kts | 85° |
| 2026-04-25 18:01 | 45.64983 | 9.84733 | 24389 ft | 416 kts | 85° |
| 2026-04-25 18:01 | 45.64981 | 9.88888 | 24809 ft | 420 kts | 86° |
| 2026-04-25 18:01 | 45.64977 | 9.93088 | 25185 ft | 424 kts | 86° |
| 2026-04-25 18:01 | 45.64968 | 9.97320 | 25597 ft | 428 kts | 86° |
| 2026-04-25 18:02 | 45.64956 | 10.01600 | 25995 ft | 432 kts | 86° |
| 2026-04-25 18:02 | 45.65034 | 10.05895 | 26373 ft | 433 kts | 80° |
| 2026-04-25 18:02 | 45.65566 | 10.10123 | 26760 ft | 432 kts | 70° |
| 2026-04-25 18:02 | 45.66577 | 10.14155 | 27092 ft | 431 kts | 61° |
| 2026-04-25 18:03 | 45.68033 | 10.17895 | 27367 ft | 430 kts | 51° |
| 2026-04-25 18:03 | 45.69759 | 10.21339 | 27729 ft | 432 kts | 50° |
| 2026-04-25 18:03 | 45.71548 | 10.24884 | 28141 ft | 436 kts | 50° |
| 2026-04-25 18:03 | 45.73323 | 10.28425 | 28479 ft | 439 kts | 50° |
| 2026-04-25 18:04 | 45.75104 | 10.32001 | 28860 ft | 443 kts | 50° |
| 2026-04-25 18:04 | 45.76871 | 10.35567 | 29231 ft | 446 kts | 50° |
| 2026-04-25 18:04 | 45.78673 | 10.39209 | 29603 ft | 449 kts | 50° |
| 2026-04-25 18:04 | 45.80412 | 10.42966 | 29885 ft | 456 kts | 56° |
| 2026-04-25 18:05 | 45.81826 | 10.47068 | 30235 ft | 462 kts | 61° |
| 2026-04-25 18:05 | 45.83187 | 10.51254 | 30546 ft | 464 kts | 61° |
| 2026-04-25 18:05 | 45.84560 | 10.55452 | 30825 ft | 465 kts | 61° |
| 2026-04-25 18:05 | 45.85936 | 10.59657 | 31136 ft | 467 kts | 60° |
| 2026-04-25 18:06 | 45.87314 | 10.63887 | 31421 ft | 468 kts | 61° |
| 2026-04-25 18:06 | 45.88689 | 10.68127 | 31692 ft | 469 kts | 61° |
| 2026-04-25 18:06 | 45.90048 | 10.72327 | 32031 ft | 468 kts | 61° |
| 2026-04-25 18:06 | 45.91422 | 10.76573 | 32454 ft | 467 kts | 61° |
| 2026-04-25 18:07 | 45.92787 | 10.80795 | 32848 ft | 465 kts | 60° |
| 2026-04-25 18:07 | 45.94144 | 10.84999 | 33218 ft | 464 kts | 61° |
| 2026-04-25 18:07 | 45.95500 | 10.89203 | 33480 ft | 464 kts | 61° |
| 2026-04-25 18:07 | 45.96856 | 10.93415 | 33820 ft | 464 kts | 61° |
| 2026-04-25 18:08 | 45.98190 | 10.97566 | 34073 ft | 463 kts | 60° |
| 2026-04-25 18:08 | 46.00838 | 11.05849 | 34116 ft | 449 kts | 61° |
| 2026-04-25 18:09 | 46.03427 | 11.13975 | 34134 ft | 446 kts | 61° |
| 2026-04-25 18:09 | 46.06013 | 11.22093 | 34133 ft | 446 kts | 61° |
| 2026-04-25 18:10 | 46.08585 | 11.30178 | 34126 ft | 447 kts | 61° |
| 2026-04-25 18:10 | 46.11170 | 11.38348 | 34105 ft | 447 kts | 62° |
| 2026-04-25 18:11 | 46.13737 | 11.46514 | 34091 ft | 447 kts | 62° |
| 2026-04-25 18:11 | 46.16019 | 11.53782 | 34064 ft | 448 kts | 62° |
| 2026-04-25 18:12 | 46.18594 | 11.61979 | 34029 ft | 448 kts | 62° |
| 2026-04-25 18:12 | 46.21151 | 11.70177 | 34021 ft | 448 kts | 63° |
| 2026-04-25 18:13 | 46.23278 | 11.77016 | 34011 ft | 449 kts | 63° |
| 2026-04-25 18:13 | 46.25836 | 11.85253 | 34005 ft | 449 kts | 63° |
| 2026-04-25 18:14 | 46.30074 | 11.98991 | 33992 ft | 451 kts | 63° |
| 2026-04-25 18:14 | 46.32217 | 12.05938 | 33995 ft | 451 kts | 63° |
| 2026-04-25 18:15 | 46.34775 | 12.14239 | 33997 ft | 452 kts | 64° |
| 2026-04-25 18:15 | 46.37312 | 12.22533 | 33995 ft | 454 kts | 64° |
| 2026-04-25 18:16 | 46.39855 | 12.30899 | 34000 ft | 454 kts | 64° |
| 2026-04-25 18:17 | 46.43678 | 12.43481 | 34008 ft | 455 kts | 65° |
| 2026-04-25 18:17 | 46.46218 | 12.51890 | 34003 ft | 455 kts | 65° |
| 2026-04-25 18:18 | 46.48762 | 12.60313 | 34000 ft | 456 kts | 65° |
| 2026-04-25 18:18 | 46.51299 | 12.68751 | 34003 ft | 456 kts | 65° |
| 2026-04-25 18:19 | 46.53825 | 12.77210 | 34003 ft | 457 kts | 65° |
| 2026-04-25 18:19 | 46.56351 | 12.85697 | 34006 ft | 458 kts | 65° |
| 2026-04-25 18:20 | 46.58885 | 12.94201 | 34009 ft | 459 kts | 65° |
| 2026-04-25 18:20 | 46.61413 | 13.02731 | 34006 ft | 459 kts | 65° |
| 2026-04-25 18:21 | 46.63937 | 13.11274 | 34003 ft | 460 kts | 66° |
| 2026-04-25 18:21 | 46.66453 | 13.19835 | 34004 ft | 460 kts | 66° |
| 2026-04-25 18:22 | 46.68999 | 13.28394 | 34004 ft | 461 kts | 64° |
| 2026-04-25 18:22 | 46.71877 | 13.36726 | 34007 ft | 460 kts | 60° |
| 2026-04-25 18:23 | 46.74924 | 13.44881 | 34006 ft | 461 kts | 60° |
| 2026-04-25 18:23 | 46.77936 | 13.53133 | 34004 ft | 461 kts | 61° |
| 2026-04-25 18:24 | 46.80858 | 13.61462 | 34003 ft | 461 kts | 62° |
| 2026-04-25 18:24 | 46.83765 | 13.69824 | 33998 ft | 461 kts | 62° |
| 2026-04-25 18:25 | 46.86689 | 13.78187 | 33994 ft | 462 kts | 61° |
| 2026-04-25 18:25 | 46.89627 | 13.86558 | 33996 ft | 462 kts | 61° |
| 2026-04-25 18:26 | 46.92536 | 13.94882 | 33997 ft | 462 kts | 61° |
| 2026-04-25 18:26 | 46.95457 | 14.03282 | 33999 ft | 462 kts | 61° |
| 2026-04-25 18:27 | 46.98289 | 14.11455 | 33999 ft | 462 kts | 62° |
| 2026-04-25 18:27 | 47.01188 | 14.19859 | 34004 ft | 462 kts | 62° |
| 2026-04-25 18:28 | 47.04087 | 14.28268 | 33994 ft | 462 kts | 62° |
| 2026-04-25 18:28 | 47.06977 | 14.36701 | 34002 ft | 463 kts | 62° |
| 2026-04-25 18:29 | 47.11206 | 14.49453 | 34003 ft | 465 kts | 69° |
| 2026-04-25 18:30 | 47.13703 | 14.63218 | 33674 ft | 464 kts | 75° |
| 2026-04-25 18:30 | 47.14495 | 14.67798 | 33136 ft | 461 kts | 75° |
| 2026-04-25 18:30 | 47.15281 | 14.72349 | 32604 ft | 458 kts | 75° |
| 2026-04-25 18:30 | 47.16058 | 14.76868 | 32091 ft | 455 kts | 75° |
| 2026-04-25 18:31 | 47.16828 | 14.81356 | 31596 ft | 451 kts | 75° |
| 2026-04-25 18:31 | 47.17590 | 14.85821 | 31133 ft | 448 kts | 75° |
| 2026-04-25 18:31 | 47.18341 | 14.90243 | 30690 ft | 445 kts | 75° |
| 2026-04-25 18:31 | 47.19086 | 14.94642 | 30261 ft | 442 kts | 75° |
| 2026-04-25 18:32 | 47.19822 | 14.99012 | 29752 ft | 439 kts | 75° |
| 2026-04-25 18:32 | 47.20552 | 15.03353 | 29262 ft | 435 kts | 75° |
| 2026-04-25 18:32 | 47.21272 | 15.07644 | 28781 ft | 431 kts | 75° |
| 2026-04-25 18:32 | 47.21986 | 15.11907 | 28286 ft | 427 kts | 75° |
| 2026-04-25 18:33 | 47.22692 | 15.16139 | 27817 ft | 423 kts | 75° |
| 2026-04-25 18:33 | 47.23389 | 15.20327 | 27353 ft | 420 kts | 75° |
| 2026-04-25 18:33 | 47.24324 | 15.24368 | 26916 ft | 414 kts | 63° |
| 2026-04-25 18:33 | 47.25486 | 15.28225 | 26489 ft | 411 kts | 64° |
| 2026-04-25 18:34 | 47.26629 | 15.32004 | 26087 ft | 407 kts | 64° |
| 2026-04-25 18:34 | 47.27777 | 15.35799 | 25663 ft | 404 kts | 64° |
| 2026-04-25 18:34 | 47.28931 | 15.39621 | 24716 ft | 415 kts | 64° |
| 2026-04-25 18:34 | 47.30121 | 15.43571 | 23681 ft | 428 kts | 64° |
| 2026-04-25 18:35 | 47.31352 | 15.47678 | 22650 ft | 436 kts | 64° |
| 2026-04-25 18:35 | 47.32574 | 15.51756 | 21975 ft | 434 kts | 63° |
| 2026-04-25 18:35 | 47.34116 | 15.55516 | 21398 ft | 424 kts | 49° |
| 2026-04-25 18:35 | 47.35951 | 15.58919 | 20464 ft | 428 kts | 48° |
| 2026-04-25 18:36 | 47.37827 | 15.62376 | 19539 ft | 433 kts | 48° |
| 2026-04-25 18:36 | 47.39704 | 15.65838 | 18866 ft | 431 kts | 48° |
| 2026-04-25 18:36 | 47.41568 | 15.69286 | 18249 ft | 427 kts | 48° |
| 2026-04-25 18:36 | 47.43412 | 15.72705 | 17584 ft | 423 kts | 48° |
| 2026-04-25 18:37 | 47.45211 | 15.76049 | 16976 ft | 419 kts | 48° |
| 2026-04-25 18:37 | 47.47016 | 15.79405 | 16373 ft | 416 kts | 48° |
| 2026-04-25 18:37 | 47.48805 | 15.82738 | 15770 ft | 412 kts | 48° |
| 2026-04-25 18:37 | 47.50577 | 15.86039 | 15208 ft | 408 kts | 48° |
| 2026-04-25 18:38 | 47.52336 | 15.89319 | 14642 ft | 405 kts | 49° |
| 2026-04-25 18:38 | 47.54098 | 15.92608 | 14068 ft | 402 kts | 49° |
| 2026-04-25 18:38 | 47.55826 | 15.95837 | 13421 ft | 399 kts | 49° |
| 2026-04-25 18:38 | 47.57517 | 15.99003 | 12815 ft | 395 kts | 49° |
| 2026-04-25 18:39 | 47.59231 | 16.02220 | 12173 ft | 391 kts | 49° |
| 2026-04-25 18:39 | 47.60884 | 16.05326 | 11753 ft | 381 kts | 49° |
| 2026-04-25 18:39 | 47.62467 | 16.08309 | 11401 ft | 355 kts | 49° |
| 2026-04-25 18:39 | 47.63966 | 16.11133 | 11049 ft | 334 kts | 49° |
| 2026-04-25 18:40 | 47.65361 | 16.13761 | 10707 ft | 315 kts | 49° |
| 2026-04-25 18:40 | 47.66689 | 16.16265 | 10295 ft | 304 kts | 49° |
| 2026-04-25 18:40 | 47.67982 | 16.18702 | 9729 ft | 298 kts | 49° |
| 2026-04-25 18:40 | 47.69253 | 16.21100 | 9061 ft | 294 kts | 49° |
| 2026-04-25 18:41 | 47.70510 | 16.23475 | 8403 ft | 291 kts | 49° |
| 2026-04-25 18:41 | 47.71755 | 16.25822 | 7744 ft | 287 kts | 48° |
| 2026-04-25 18:41 | 47.72986 | 16.28141 | 7102 ft | 284 kts | 48° |
| 2026-04-25 18:41 | 47.74136 | 16.30307 | 6524 ft | 280 kts | 49° |
| 2026-04-25 18:42 | 47.75334 | 16.32568 | 5810 ft | 277 kts | 49° |
| 2026-04-25 18:42 | 47.75721 | 16.33301 | 5560 ft | 277 kts | 49° |
| 2026-04-25 18:42 | 47.77632 | 16.36941 | 5042 ft | 248 kts | 49° |
| 2026-04-25 18:42 | 47.78666 | 16.38918 | 4537 ft | 243 kts | 48° |
| 2026-04-25 18:43 | 47.79705 | 16.40893 | 4130 ft | 239 kts | 49° |
| 2026-04-25 18:43 | 47.80729 | 16.42845 | 4019 ft | 241 kts | 48° |
| 2026-04-25 18:43 | 47.81754 | 16.44796 | 4012 ft | 236 kts | 49° |
| 2026-04-25 18:43 | 47.82732 | 16.46665 | 3939 ft | 223 kts | 48° |
| 2026-04-25 18:44 | 47.83665 | 16.48447 | 3813 ft | 214 kts | 47° |
| 2026-04-25 18:44 | 47.84572 | 16.50174 | 3648 ft | 210 kts | 47° |
| 2026-04-25 18:44 | 47.85484 | 16.51908 | 3233 ft | 217 kts | 46° |
| 2026-04-25 18:44 | 47.86410 | 16.53672 | 3006 ft | 213 kts | 46° |
| 2026-04-25 18:45 | 47.87290 | 16.55363 | 3007 ft | 202 kts | 47° |
| 2026-04-25 18:45 | 47.88142 | 16.57001 | 3029 ft | 197 kts | 46° |
| 2026-04-25 18:45 | 47.88984 | 16.58614 | 3007 ft | 196 kts | 46° |
| 2026-04-25 18:45 | 47.89822 | 16.60215 | 3003 ft | 196 kts | 47° |
| 2026-04-25 18:46 | 47.90660 | 16.61815 | 3007 ft | 197 kts | 46° |
| 2026-04-25 18:46 | 47.91528 | 16.63411 | 2999 ft | 197 kts | 40° |
| 2026-04-25 18:46 | 47.92623 | 16.64569 | 3003 ft | 190 kts | 20° |
| 2026-04-25 18:46 | 47.93867 | 16.65071 | 3007 ft | 182 kts | 0° |
| 2026-04-25 18:47 | 47.95113 | 16.64923 | 3007 ft | 178 kts | 341° |
| 2026-04-25 18:47 | 47.96301 | 16.64425 | 3003 ft | 177 kts | 340° |
| 2026-04-25 18:47 | 47.97479 | 16.63930 | 2857 ft | 174 kts | 339° |
| 2026-04-25 18:47 | 47.98630 | 16.63448 | 2658 ft | 169 kts | 339° |
| 2026-04-25 18:48 | 47.99740 | 16.62982 | 2456 ft | 163 kts | 339° |
| 2026-04-25 18:48 | 48.00799 | 16.62537 | 2239 ft | 155 kts | 338° |
| 2026-04-25 18:48 | 48.01797 | 16.62119 | 2060 ft | 141 kts | 337° |
| 2026-04-25 18:48 | 48.02708 | 16.61735 | 1870 ft | 133 kts | 336° |
| 2026-04-25 18:49 | 48.03586 | 16.61364 | 1701 ft | 130 kts | 336° |
| 2026-04-25 18:49 | 48.04452 | 16.60998 | 1518 ft | 128 kts | 336° |
| 2026-04-25 18:49 | 48.05309 | 16.60636 | 1351 ft | 128 kts | 337° |
| 2026-04-25 18:49 | 48.06171 | 16.60271 | 1177 ft | 129 kts | 339° |
| 2026-04-25 18:50 | 48.07033 | 16.59907 | 1009 ft | 129 kts | 339° |
| 2026-04-25 18:50 | 48.07897 | 16.59542 | 845 ft | 128 kts | 339° |
| 2026-04-25 18:50 | 48.08761 | 16.59179 | 682 ft | 129 kts | 339° |
| 2026-04-25 18:50 | 48.09587 | 16.58822 | 621 ft | 110 kts | 343° |
| 2026-04-25 18:51 | 48.10191 | 16.58566 | 610 ft | 77 kts | 344° |
| 2026-04-25 18:51 | 48.10351 | 16.58499 | 613 ft | 71 kts | 345° |
| 2026-04-25 18:51 | 48.10953 | 16.58231 | 610 ft | 26 kts | 326° |
| 2026-04-25 18:51 | 48.11028 | 16.58098 | 621 ft | 14 kts | 298° |
| 2026-04-25 18:52 | 48.11050 | 16.58034 | 614 ft | 0 kts | 298° |
| 2026-04-25 18:52 | 48.11051 | 16.58033 | 614 ft | 1 kts | 298° |
| 2026-04-25 18:53 | 48.11069 | 16.57983 | 612 ft | 7 kts | 298° |
| 2026-04-25 18:53 | 48.11104 | 16.57910 | 626 ft | 10 kts | 324° |
| 2026-04-25 18:53 | 48.11184 | 16.57872 | 612 ft | 14 kts | 344° |
| 2026-04-25 18:53 | 48.11287 | 16.57828 | 617 ft | 16 kts | 344° |
| 2026-04-25 18:54 | 48.11411 | 16.57775 | 613 ft | 9 kts | 344° |
| 2026-04-25 18:54 | 48.11489 | 16.57742 | 620 ft | 6 kts | 343° |
| 2026-04-25 18:54 | 48.11543 | 16.57720 | 619 ft | 11 kts | 345° |
| 2026-04-25 18:55 | 48.11623 | 16.57689 | 618 ft | 13 kts | 344° |
| 2026-04-25 18:55 | 48.11685 | 16.57662 | 622 ft | 6 kts | 344° |
| 2026-04-25 18:55 | 48.11722 | 16.57647 | 610 ft | 5 kts | 344° |
| 2026-04-25 18:55 | 48.11768 | 16.57627 | 618 ft | 9 kts | 344° |
| 2026-04-25 18:56 | 48.11826 | 16.57577 | 610 ft | 11 kts | 308° |
| 2026-04-25 18:56 | 48.11817 | 16.57462 | 622 ft | 13 kts | 252° |
| 2026-04-25 18:56 | 48.11813 | 16.57321 | 613 ft | 15 kts | 291° |
| 2026-04-25 18:56 | 48.11877 | 16.57184 | 617 ft | 17 kts | 316° |
| 2026-04-25 18:57 | 48.11940 | 16.57022 | 622 ft | 19 kts | 296° |
| 2026-04-25 18:57 | 48.11989 | 16.56869 | 610 ft | 9 kts | 296° |
| 2026-04-25 18:57 | 48.12006 | 16.56816 | 618 ft | 4 kts | 296° |
| 2026-04-25 18:57 | 48.12008 | 16.56790 | 617 ft | 4 kts | 251° |
| 2026-04-25 18:58 | 48.11979 | 16.56761 | 610 ft | 6 kts | 207° |
| 2026-04-25 18:58 | 48.11925 | 16.56721 | 617 ft | 2 kts | 206° |
| 2026-04-25 18:58 | 48.11915 | 16.56713 | 622 ft | 1 kts | 206° |